Time;durP1;ratioP1;P1;durP2;ratioP2;P2;SDS_P1;SDS_P2;PMS_P1;PMS_P2;Temp;Humidity;BMP_temperature;BMP_pressure;BME280_temperature;BME280_humidity;BME280_pressure;Samples;Min_cycle;Max_cycle;Signal;HPM_P1;HPM_P2
2023/09/27 00:04:15;;;;;;;9.88;8.18;;;16.60;1.00;;;;;;20574477;28;20050;-42
2023/09/27 00:14:15;;;;;;;11.85;8.25;;;16.50;4.20;;;;;;20576041;28;20565;-42
2023/09/27 00:24:16;;;;;;;9.40;7.75;;;16.40;6.00;;;;;;20574512;28;20047;-41
2023/09/27 00:34:16;;;;;;;11.20;9.38;;;16.40;8.70;;;;;;20578272;28;20035;-41
2023/09/27 00:44:17;;;;;;;10.67;9.17;;;16.40;8.00;;;;;;20573599;28;20062;-41
2023/09/27 00:54:19;;;;;;;9.57;8.50;;;16.40;8.10;;;;;;20569892;28;20468;-41
2023/09/27 01:04:19;;;;;;;10.68;9.30;;;16.40;6.70;;;;;;20577589;28;20085;-41
2023/09/27 01:14:20;;;;;;;11.98;9.65;;;16.30;10.60;;;;;;20572465;28;20458;-41
2023/09/27 01:24:21;;;;;;;11.90;10.13;;;16.20;17.80;;;;;;20574968;28;20050;-41
2023/09/27 01:34:22;;;;;;;10.75;9.65;;;16.00;25.90;;;;;;20587922;28;20065;-41
2023/09/27 01:44:22;;;;;;;12.32;9.95;;;15.80;25.80;;;;;;20585753;28;20050;-41
2023/09/27 01:54:23;;;;;;;12.57;9.27;;;15.70;33.70;;;;;;20584579;28;20034;-41
2023/09/27 02:04:24;;;;;;;12.45;10.18;;;15.50;37.90;;;;;;20585969;28;20068;-41
2023/09/27 02:14:24;;;;;;;11.38;10.20;;;15.30;47.10;;;;;;20583316;28;20038;-41
2023/09/27 02:24:25;;;;;;;16.40;11.45;;;15.20;51.10;;;;;;20581615;28;20395;-42
2023/09/27 02:34:28;;;;;;;13.13;11.73;;;15.10;67.40;;;;;;20585974;28;20399;-41
2023/09/27 02:44:28;;;;;;;15.55;12.85;;;15.10;86.80;;;;;;20580297;28;20529;-41
2023/09/27 02:54:29;;;;;;;14.65;13.00;;;15.10;91.70;;;;;;20581609;28;20483;-41
2023/09/27 03:04:30;;;;;;;15.30;13.70;;;14.90;94.00;;;;;;20583999;28;21735;-41
2023/09/27 03:14:31;;;;;;;15.57;13.82;;;14.80;94.60;;;;;;20580293;28;20047;-41
2023/09/27 03:24:34;;;;;;;18.90;14.73;;;14.70;98.10;;;;;;20575717;28;20088;-41
2023/09/27 03:34:35;;;;;;;17.42;14.35;;;14.70;96.00;;;;;;20581151;28;20038;-41
2023/09/27 03:44:36;;;;;;;16.10;14.40;;;14.70;99.90;;;;;;20586002;28;20569;-41
2023/09/27 03:54:37;;;;;;;18.63;15.02;;;14.70;99.90;;;;;;20585865;28;20038;-41
2023/09/27 04:04:37;;;;;;;18.20;16.00;;;14.70;99.90;;;;;;20579263;28;20042;-41
2023/09/27 04:14:39;;;;;;;18.00;15.45;;;14.70;99.90;;;;;;20573567;28;20458;-41
2023/09/27 04:24:39;;;;;;;18.30;16.15;;;14.60;99.90;;;;;;20583532;28;20057;-41
2023/09/27 04:34:40;;;;;;;17.30;15.50;;;14.50;99.90;;;;;;20577556;28;20074;-41
2023/09/27 04:44:40;;;;;;;19.08;16.15;;;14.40;99.90;;;;;;20572130;28;20564;-41
2023/09/27 04:54:41;;;;;;;21.13;16.88;;;14.40;99.90;;;;;;20575649;28;20061;-41
2023/09/27 05:04:42;;;;;;;18.65;15.13;;;14.50;99.90;;;;;;20570109;28;20474;-41
2023/09/27 05:14:42;;;;;;;16.20;14.40;;;14.50;99.90;;;;;;20565260;28;20039;-41
2023/09/27 05:24:43;;;;;;;19.27;15.43;;;14.40;99.90;;;;;;20564684;28;20141;-41
2023/09/27 05:34:44;;;;;;;18.33;15.20;;;14.30;99.90;;;;;;20572547;28;20137;-41
2023/09/27 05:44:44;;;;;;;17.15;14.68;;;14.20;99.90;;;;;;20569680;28;20502;-41
2023/09/27 05:54:46;;;;;;;18.98;15.02;;;14.10;99.90;;;;;;20577284;28;20038;-41
2023/09/27 06:04:47;;;;;;;21.63;17.13;;;14.20;99.90;;;;;;20570700;28;20038;-41
2023/09/27 06:14:48;;;;;;;28.10;19.63;;;14.40;99.90;;;;;;20575045;28;20522;-41
2023/09/27 06:24:49;;;;;;;25.15;18.65;;;14.70;99.90;;;;;;20583456;28;20478;-41
2023/09/27 06:34:52;;;;;;;25.90;21.95;;;14.90;99.90;;;;;;20581096;28;20410;-41
2023/09/27 06:44:52;;;;;;;23.02;20.05;;;15.00;99.90;;;;;;20590521;28;20054;-41
2023/09/27 06:54:53;;;;;;;25.05;17.88;;;15.20;99.90;;;;;;20586153;28;20110;-41
2023/09/27 07:04:54;;;;;;;24.67;18.52;;;15.30;99.90;;;;;;20581655;28;20039;-41
2023/09/27 07:14:54;;;;;;;20.90;16.10;;;15.50;99.90;;;;;;20595914;28;20043;-41
2023/09/27 07:24:55;;;;;;;28.08;20.45;;;15.60;99.90;;;;;;20591065;28;20053;-41
2023/09/27 07:34:58;;;;;;;23.05;16.58;;;15.90;99.90;;;;;;20593710;28;20069;-41
2023/09/27 07:44:58;;;;;;;25.48;20.98;;;16.10;99.90;;;;;;20593675;28;20129;-41
2023/09/27 07:54:59;;;;;;;29.23;22.23;;;16.30;99.90;;;;;;20591052;28;20034;-41
2023/09/27 08:05:09;;;;;;;30.45;22.65;;;16.50;99.90;;;;;;20592107;28;20156;-41
2023/09/27 08:15:12;;;;;;;25.33;18.13;;;16.90;99.90;;;;;;20589314;28;20452;-41
2023/09/27 08:25:16;;;;;;;25.00;18.80;;;17.30;99.90;;;;;;20589763;28;20522;-41
2023/09/27 08:35:17;;;;;;;21.05;15.80;;;17.70;96.50;;;;;;20586606;28;20089;-41
2023/09/27 08:45:19;;;;;;;23.73;15.93;;;17.90;81.20;;;;;;20589505;28;20050;-41
2023/09/27 08:55:20;;;;;;;23.48;16.20;;;17.90;48.40;;;;;;20586821;28;20137;-41
2023/09/27 09:05:22;;;;;;;17.27;12.18;;;17.90;46.30;;;;;;20588276;28;20047;-42
2023/09/27 09:15:30;;;;;;;17.73;13.43;;;17.90;33.00;;;;;;20585484;28;20521;-41
2023/09/27 09:25:31;;;;;;;17.40;12.80;;;18.00;31.40;;;;;;20585129;28;20734;-41
2023/09/27 09:35:32;;;;;;;15.85;12.55;;;18.10;24.50;;;;;;20587357;28;20047;-41
2023/09/27 09:45:43;;;;;;;15.27;11.82;;;18.10;25.80;;;;;;20590664;28;20041;-41
2023/09/27 09:55:49;;;;;;;13.77;9.55;;;18.30;18.20;;;;;;20600201;28;20037;-41
2023/09/27 10:05:51;;;;;;;19.05;13.85;;;18.40;21.10;;;;;;20599677;28;20049;-41
2023/09/27 10:15:52;;;;;;;17.35;13.10;;;18.60;22.00;;;;;;20597968;28;20097;-41
2023/09/27 10:25:53;;;;;;;19.05;12.60;;;18.80;10.20;;;;;;20599826;28;20058;-41
2023/09/27 10:36:03;;;;;;;15.80;11.25;;;19.00;6.80;;;;;;20599136;28;20042;-41
2023/09/27 10:46:04;;;;;;;18.35;11.98;;;19.20;3.20;;;;;;20596205;28;23587;-41
2023/09/27 10:56:04;;;;;;;20.58;14.13;;;19.20;1.00;;;;;;20597446;28;20054;-41
2023/09/27 11:06:12;;;;;;;19.55;15.05;;;19.40;1.00;;;;;;20595668;28;20039;-41
2023/09/27 11:16:14;;;;;;;15.27;11.32;;;19.90;1.00;;;;;;20596457;28;20038;-41
2023/09/27 11:26:17;;;;;;;15.27;10.43;;;20.60;1.00;;;;;;20594911;28;20119;-41
2023/09/27 11:36:18;;;;;;;12.68;10.20;;;21.40;1.00;;;;;;20593303;28;20050;-42
2023/09/27 11:46:28;;;;;;;7.87;4.60;;;22.60;1.00;;;;;;20594198;28;20096;-42
2023/09/27 11:56:28;;;;;;;8.20;5.10;;;23.30;1.00;;;;;;20592492;28;20069;-42
2023/09/27 12:06:29;;;;;;;9.57;4.97;;;23.80;1.00;;;;;;20591616;28;20038;-42
2023/09/27 12:16:29;;;;;;;5.65;3.90;;;24.10;1.00;;;;;;20590710;28;20049;-42
2023/09/27 12:26:30;;;;;;;6.47;3.90;;;24.50;1.00;;;;;;20590811;28;20038;-42
2023/09/27 12:36:31;;;;;;;5.72;3.13;;;25.00;1.00;;;;;;20588291;28;20577;-42
2023/09/27 12:46:31;;;;;;;5.78;3.50;;;25.10;1.00;;;;;;20588639;28;20061;-42
2023/09/27 12:56:32;;;;;;;5.20;3.63;;;24.80;1.00;;;;;;20588207;28;20157;-42
2023/09/27 13:06:32;;;;;;;5.82;3.00;;;25.10;1.00;;;;;;20587348;28;20046;-42
2023/09/27 13:16:33;;;;;;;6.20;4.18;;;25.50;1.00;;;;;;20589134;28;20913;-42
2023/09/27 13:26:34;;;;;;;6.43;4.07;;;25.90;1.00;;;;;;20602456;28;20398;-42
2023/09/27 13:36:39;;;;;;;6.35;4.30;;;25.60;1.00;;;;;;20602150;28;20046;-42
2023/09/27 13:46:40;;;;;;;6.63;4.40;;;25.80;1.00;;;;;;20603282;28;20050;-42
2023/09/27 13:56:41;;;;;;;6.75;5.05;;;25.20;1.00;;;;;;20601175;28;20045;-42
2023/09/27 14:06:41;;;;;;;8.55;4.97;;;25.20;1.00;;;;;;20599364;28;20482;-42
2023/09/27 14:16:42;;;;;;;6.63;4.73;;;24.60;1.00;;;;;;20600310;28;20313;-42
2023/09/27 14:26:44;;;;;;;6.15;4.20;;;24.60;1.00;;;;;;20595703;28;20049;-42
2023/09/27 14:36:44;;;;;;;6.88;4.75;;;24.60;1.00;;;;;;20595119;28;20129;-41
2023/09/27 14:46:45;;;;;;;10.40;6.35;;;24.10;1.00;;;;;;20595234;28;20042;-41
2023/09/27 14:56:46;;;;;;;7.07;4.78;;;23.70;1.00;;;;;;20595284;28;20486;-41
2023/09/27 15:06:46;;;;;;;9.02;7.10;;;23.20;1.00;;;;;;20594414;28;20306;-41
2023/09/27 15:16:47;;;;;;;14.45;8.32;;;23.10;1.00;;;;;;20590299;28;20629;-42
2023/09/27 15:26:48;;;;;;;10.82;7.35;;;22.70;1.00;;;;;;20569950;28;20482;-41
2023/09/27 15:36:51;;;;;;;10.93;9.00;;;22.60;1.00;;;;;;20574455;28;20434;-42
2023/09/27 15:46:51;;;;;;;12.02;9.40;;;22.50;1.00;;;;;;20570587;28;20050;-41
2023/09/27 15:56:52;;;;;;;11.55;8.70;;;22.40;1.00;;;;;;20640432;28;20052;-41
2023/09/27 16:06:52;;;;;;;9.55;6.93;;;22.30;1.00;;;;;;20661933;28;20038;-41
2023/09/27 16:16:55;;;;;;;10.60;7.60;;;22.20;1.00;;;;;;20665126;28;20089;-42
2023/09/27 16:26:57;;;;;;;8.20;6.70;;;22.10;1.00;;;;;;20663336;28;20038;-41
2023/09/27 16:36:58;;;;;;;12.32;9.32;;;22.10;1.00;;;;;;20655752;28;20038;-41
2023/09/27 16:46:59;;;;;;;12.57;9.38;;;22.10;1.00;;;;;;20645458;28;20053;-41
2023/09/27 16:56:59;;;;;;;10.15;7.95;;;22.00;1.00;;;;;;20649561;28;20475;-41
2023/09/27 17:07:00;;;;;;;12.43;9.98;;;21.70;1.00;;;;;;20652903;28;20034;-42
2023/09/27 17:17:01;;;;;;;12.90;10.70;;;21.70;1.00;;;;;;20633832;28;20312;-42
2023/09/27 17:27:02;;;;;;;14.77;11.10;;;21.60;1.00;;;;;;20632265;28;20045;-41
2023/09/27 17:37:03;;;;;;;15.27;11.20;;;21.50;1.00;;;;;;20623800;28;20046;-42
2023/09/27 17:47:03;;;;;;;14.50;10.93;;;21.50;1.00;;;;;;20637406;28;20528;-41
2023/09/27 17:57:04;;;;;;;16.63;11.80;;;21.40;1.00;;;;;;20637908;28;20144;-41
2023/09/27 18:07:05;;;;;;;14.25;11.10;;;21.30;1.00;;;;;;20638248;28;20456;-41
2023/09/27 18:17:05;;;;;;;12.20;10.30;;;21.20;1.00;;;;;;20654143;28;20140;-41
2023/09/27 18:27:06;;;;;;;16.60;11.40;;;21.10;1.00;;;;;;20656920;28;20184;-41
2023/09/27 18:37:09;;;;;;;15.55;12.52;;;21.10;1.00;;;;;;20665155;28;20066;-41
2023/09/27 18:47:10;;;;;;;16.48;13.05;;;21.10;1.00;;;;;;20656386;28;20049;-41
2023/09/27 18:57:11;;;;;;;17.77;12.70;;;20.90;1.00;;;;;;20662800;28;20026;-41
2023/09/27 19:07:13;;;;;;;13.98;12.00;;;20.80;1.00;;;;;;20663156;28;20053;-42
2023/09/27 19:17:13;;;;;;;16.10;12.50;;;20.90;1.00;;;;;;20664733;28;20505;-41
2023/09/27 19:27:14;;;;;;;13.68;11.70;;;20.80;1.00;;;;;;20662656;28;20049;-41
2023/09/27 19:37:15;;;;;;;14.07;11.30;;;20.80;1.00;;;;;;20734238;28;20049;-41
2023/09/27 19:47:16;;;;;;;13.85;11.48;;;20.80;1.00;;;;;;20829675;28;20049;-41
2023/09/27 19:57:17;;;;;;;15.77;11.57;;;20.70;1.00;;;;;;20821207;28;20047;-41
2023/09/27 20:07:17;;;;;;;13.65;10.38;;;20.70;1.00;;;;;;20823827;28;20467;-41
2023/09/27 20:17:19;;;;;;;12.43;10.18;;;20.60;1.00;;;;;;20827853;28;20037;-42
2023/09/27 20:27:19;;;;;;;13.73;10.98;;;20.80;1.00;;;;;;20824704;28;20033;-41
2023/09/27 20:37:20;;;;;;;14.47;11.20;;;20.80;1.00;;;;;;20817586;28;20110;-41
2023/09/27 20:47:21;;;;;;;13.73;11.35;;;20.80;1.00;;;;;;20822131;28;20513;-41
2023/09/27 20:57:22;;;;;;;13.90;11.52;;;20.80;1.00;;;;;;20822701;28;20504;-41
2023/09/27 21:07:23;;;;;;;14.02;10.90;;;20.70;1.00;;;;;;20828625;28;20042;-42
2023/09/27 21:17:24;;;;;;;14.38;11.00;;;20.80;1.00;;;;;;20826666;28;20040;-41
2023/09/27 21:27:24;;;;;;;11.90;10.50;;;20.80;1.00;;;;;;20815442;28;20604;-41
2023/09/27 21:37:26;;;;;;;14.10;10.63;;;20.70;1.00;;;;;;20825024;28;20044;-41
2023/09/27 21:47:27;;;;;;;11.35;9.88;;;20.60;1.00;;;;;;20831515;28;20052;-41
2023/09/27 21:57:27;;;;;;;10.67;8.27;;;20.70;1.00;;;;;;20826482;28;20581;-41
2023/09/27 22:07:28;;;;;;;11.60;7.97;;;20.70;1.00;;;;;;20839103;28;20174;-41
2023/09/27 22:17:35;;;;;;;9.57;6.78;;;20.80;1.00;;;;;;20835491;28;20033;-41
2023/09/27 22:27:36;;;;;;;9.47;6.33;;;20.70;1.00;;;;;;20828382;28;20037;-40
2023/09/27 22:37:37;;;;;;;5.70;4.25;;;20.70;1.00;;;;;;20826844;28;20475;-41
2023/09/27 22:47:38;;;;;;;6.85;4.28;;;20.70;1.00;;;;;;20810125;28;20221;-41
2023/09/27 22:57:41;;;;;;;5.32;3.72;;;20.80;1.00;;;;;;20817218;28;20497;-41
2023/09/27 23:07:42;;;;;;;6.30;4.30;;;20.80;1.00;;;;;;20820010;28;20473;-41
2023/09/27 23:17:59;;;;;;;6.07;3.90;;;20.80;1.00;;;;;;20820161;28;20500;-41
2023/09/27 23:28:02;;;;;;;5.50;4.38;;;20.60;1.00;;;;;;20821398;28;20045;-41
2023/09/27 23:38:48;;;;;;;9.07;4.20;;;20.60;1.00;;;;;;20818783;28;20175;-41
2023/09/27 23:48:29;;;;;;;6.90;3.88;;;20.40;1.00;;;;;;20812148;28;20173;-41
2023/09/27 23:58:32;;;;;;;5.88;3.53;;;20.30;1.00;;;;;;20817024;28;20507;-41
